KTHV/THV METAR and TAF weather

Enter ICAO airport designator
Station Type Date Time Source
KTHV METAR 2019/02/16 06:53 UTC NOAA

KTHV 160653Z AUTO 31012KT 10SM CLR 04/M07 A2982 RMK AO2 SLP101 T00391067


Station Type Date Time Source
KTHV Decoded METAR 2019/02/16 06:53 UTC NOAA

YORK AIRPORT, PA, United States (KTHV) 39-55N 076-53W 144M
Feb 16, 2019 - 01:53 AM EST / 2019.02.16 0653 UTC
Wind: from the NW (310 degrees) at 14 MPH (12 KT):0
Visibility: 10 mile(s):0
Sky conditions: clear
Temperature: 39.0 F (3.9 C)
Dew Point: 19.9 F (-6.7 C)
Relative Humidity: 45%
Pressure (altimeter): 29.82 in. Hg (1009 hPa)
ob: KTHV 160653Z AUTO 31012KT 10SM CLR 04/M07 A2982 RMK AO2 SLP101 T00391067
cycle: 7

Station Type Date Time Source
KTHV TAF UTC NOAA

Error!


Example: see airport list